sensor_id;sensor_type;location;lat;lon;timestamp;temperature;humidity
42095;DHT22;27753;55.724;37.612;2023-08-12T00:00:22;23.30;92.70
42095;DHT22;27753;55.724;37.612;2023-08-12T00:02:48;23.20;92.70
42095;DHT22;27753;55.724;37.612;2023-08-12T00:05:14;23.20;93.10
42095;DHT22;27753;55.724;37.612;2023-08-12T00:07:41;23.20;92.80
42095;DHT22;27753;55.724;37.612;2023-08-12T00:10:07;23.20;92.80
42095;DHT22;27753;55.724;37.612;2023-08-12T00:12:34;23.20;92.90
42095;DHT22;27753;55.724;37.612;2023-08-12T00:15:01;23.20;92.90
42095;DHT22;27753;55.724;37.612;2023-08-12T00:17:28;23.20;93.00
42095;DHT22;27753;55.724;37.612;2023-08-12T00:19:54;23.20;93.10
42095;DHT22;27753;55.724;37.612;2023-08-12T00:22:21;23.10;92.70
42095;DHT22;27753;55.724;37.612;2023-08-12T00:24:47;23.10;92.90
42095;DHT22;27753;55.724;37.612;2023-08-12T00:27:13;23.10;92.90
42095;DHT22;27753;55.724;37.612;2023-08-12T00:29:39;23.10;92.70
42095;DHT22;27753;55.724;37.612;2023-08-12T00:32:05;23.10;92.80
42095;DHT22;27753;55.724;37.612;2023-08-12T00:34:31;23.10;92.70
42095;DHT22;27753;55.724;37.612;2023-08-12T00:36:57;23.10;93.20
42095;DHT22;27753;55.724;37.612;2023-08-12T00:39:23;23.10;93.20
42095;DHT22;27753;55.724;37.612;2023-08-12T00:41:49;23.10;93.30
42095;DHT22;27753;55.724;37.612;2023-08-12T00:44:14;23.10;93.40
42095;DHT22;27753;55.724;37.612;2023-08-12T00:46:41;23.10;93.40
42095;DHT22;27753;55.724;37.612;2023-08-12T00:49:08;23.10;93.30
42095;DHT22;27753;55.724;37.612;2023-08-12T00:51:35;23.10;93.30
42095;DHT22;27753;55.724;37.612;2023-08-12T00:54:04;23.10;93.30
42095;DHT22;27753;55.724;37.612;2023-08-12T00:56:31;23.10;93.20
42095;DHT22;27753;55.724;37.612;2023-08-12T00:58:59;23.00;93.30
42095;DHT22;27753;55.724;37.612;2023-08-12T01:01:25;23.00;93.10
42095;DHT22;27753;55.724;37.612;2023-08-12T01:03:52;23.00;93.20
42095;DHT22;27753;55.724;37.612;2023-08-12T01:06:18;23.00;93.20
42095;DHT22;27753;55.724;37.612;2023-08-12T01:08:44;23.00;93.30
42095;DHT22;27753;55.724;37.612;2023-08-12T01:11:19;23.00;93.30
42095;DHT22;27753;55.724;37.612;2023-08-12T01:16:13;23.00;93.40
42095;DHT22;27753;55.724;37.612;2023-08-12T01:18:41;22.90;93.40
42095;DHT22;27753;55.724;37.612;2023-08-12T01:21:10;22.90;93.60
42095;DHT22;27753;55.724;37.612;2023-08-12T01:23:38;22.90;93.60
42095;DHT22;27753;55.724;37.612;2023-08-12T01:26:04;22.90;93.30
42095;DHT22;27753;55.724;37.612;2023-08-12T01:28:30;22.90;93.70
42095;DHT22;27753;55.724;37.612;2023-08-12T01:31:02;22.90;93.70
42095;DHT22;27753;55.724;37.612;2023-08-12T01:33:39;22.90;93.70
42095;DHT22;27753;55.724;37.612;2023-08-12T01:36:17;22.90;93.70
42095;DHT22;27753;55.724;37.612;2023-08-12T01:38:44;22.90;93.70
42095;DHT22;27753;55.724;37.612;2023-08-12T01:41:13;22.90;93.60
42095;DHT22;27753;55.724;37.612;2023-08-12T01:43:41;22.80;93.70
42095;DHT22;27753;55.724;37.612;2023-08-12T01:46:07;22.80;93.40
42095;DHT22;27753;55.724;37.612;2023-08-12T01:48:33;22.80;93.40
42095;DHT22;27753;55.724;37.612;2023-08-12T01:50:59;22.80;93.40
42095;DHT22;27753;55.724;37.612;2023-08-12T01:53:25;22.80;93.40
42095;DHT22;27753;55.724;37.612;2023-08-12T01:55:52;22.80;93.40
42095;DHT22;27753;55.724;37.612;2023-08-12T01:58:18;22.80;93.50
42095;DHT22;27753;55.724;37.612;2023-08-12T02:00:44;22.80;93.60
42095;DHT22;27753;55.724;37.612;2023-08-12T02:03:10;22.80;93.70
42095;DHT22;27753;55.724;37.612;2023-08-12T02:05:35;22.80;93.60
42095;DHT22;27753;55.724;37.612;2023-08-12T02:08:04;22.80;93.40
42095;DHT22;27753;55.724;37.612;2023-08-12T02:10:29;22.80;93.40
42095;DHT22;27753;55.724;37.612;2023-08-12T02:12:55;22.80;93.40
42095;DHT22;27753;55.724;37.612;2023-08-12T02:15:21;22.80;93.60
42095;DHT22;27753;55.724;37.612;2023-08-12T02:17:47;22.80;93.70
42095;DHT22;27753;55.724;37.612;2023-08-12T02:20:13;22.80;93.40
42095;DHT22;27753;55.724;37.612;2023-08-12T02:22:39;22.80;93.30
42095;DHT22;27753;55.724;37.612;2023-08-12T02:25:05;22.80;93.30
42095;DHT22;27753;55.724;37.612;2023-08-12T02:27:31;22.80;93.60
42095;DHT22;27753;55.724;37.612;2023-08-12T02:29:57;22.80;93.40
42095;DHT22;27753;55.724;37.612;2023-08-12T02:32:23;22.80;93.20
42095;DHT22;27753;55.724;37.612;2023-08-12T02:34:49;22.80;93.40
42095;DHT22;27753;55.724;37.612;2023-08-12T02:37:15;22.80;93.40
42095;DHT22;27753;55.724;37.612;2023-08-12T02:39:40;22.80;93.30
42095;DHT22;27753;55.724;37.612;2023-08-12T02:42:06;22.80;93.30
42095;DHT22;27753;55.724;37.612;2023-08-12T02:44:32;22.80;93.30
42095;DHT22;27753;55.724;37.612;2023-08-12T02:46:58;22.90;93.30
42095;DHT22;27753;55.724;37.612;2023-08-12T02:49:24;22.90;93.10
42095;DHT22;27753;55.724;37.612;2023-08-12T02:51:50;22.90;93.20
42095;DHT22;27753;55.724;37.612;2023-08-12T02:54:16;22.80;92.80
42095;DHT22;27753;55.724;37.612;2023-08-12T02:56:41;22.80;92.80
42095;DHT22;27753;55.724;37.612;2023-08-12T02:59:07;22.80;92.70
42095;DHT22;27753;55.724;37.612;2023-08-12T03:01:33;22.80;93.00
42095;DHT22;27753;55.724;37.612;2023-08-12T03:03:59;22.80;92.80
42095;DHT22;27753;55.724;37.612;2023-08-12T03:06:25;22.70;92.90
42095;DHT22;27753;55.724;37.612;2023-08-12T03:08:51;22.70;92.80
42095;DHT22;27753;55.724;37.612;2023-08-12T03:11:17;22.70;93.00
42095;DHT22;27753;55.724;37.612;2023-08-12T03:13:44;22.70;92.90
42095;DHT22;27753;55.724;37.612;2023-08-12T03:16:14;22.60;92.90
42095;DHT22;27753;55.724;37.612;2023-08-12T03:18:40;22.60;93.00
42095;DHT22;27753;55.724;37.612;2023-08-12T03:21:07;22.50;93.20
42095;DHT22;27753;55.724;37.612;2023-08-12T03:23:37;22.60;93.30
42095;DHT22;27753;55.724;37.612;2023-08-12T03:26:03;22.50;93.30
42095;DHT22;27753;55.724;37.612;2023-08-12T03:28:30;22.50;93.40
42095;DHT22;27753;55.724;37.612;2023-08-12T03:30:56;22.60;93.50
42095;DHT22;27753;55.724;37.612;2023-08-12T03:33:22;22.70;93.60
42095;DHT22;27753;55.724;37.612;2023-08-12T03:35:49;22.70;93.60
42095;DHT22;27753;55.724;37.612;2023-08-12T03:38:15;22.70;93.20
42095;DHT22;27753;55.724;37.612;2023-08-12T03:40:42;22.80;92.70
42095;DHT22;27753;55.724;37.612;2023-08-12T03:43:08;22.80;92.90
42095;DHT22;27753;55.724;37.612;2023-08-12T03:45:43;22.90;92.60
42095;DHT22;27753;55.724;37.612;2023-08-12T03:48:10;23.00;92.30
42095;DHT22;27753;55.724;37.612;2023-08-12T03:50:36;23.00;92.10
42095;DHT22;27753;55.724;37.612;2023-08-12T03:53:03;23.00;91.80
42095;DHT22;27753;55.724;37.612;2023-08-12T03:55:33;23.10;91.70
42095;DHT22;27753;55.724;37.612;2023-08-12T03:57:59;23.10;91.70
42095;DHT22;27753;55.724;37.612;2023-08-12T04:00:26;23.10;91.70
42095;DHT22;27753;55.724;37.612;2023-08-12T04:02:51;23.00;91.70
42095;DHT22;27753;55.724;37.612;2023-08-12T04:05:17;23.10;91.80
42095;DHT22;27753;55.724;37.612;2023-08-12T04:07:43;23.10;91.70
42095;DHT22;27753;55.724;37.612;2023-08-12T04:10:10;23.10;91.60
42095;DHT22;27753;55.724;37.612;2023-08-12T04:12:36;23.10;91.50
42095;DHT22;27753;55.724;37.612;2023-08-12T04:15:02;23.20;91.60
42095;DHT22;27753;55.724;37.612;2023-08-12T04:17:30;23.20;91.50
42095;DHT22;27753;55.724;37.612;2023-08-12T04:19:56;23.20;91.20
42095;DHT22;27753;55.724;37.612;2023-08-12T04:22:22;23.20;91.10
42095;DHT22;27753;55.724;37.612;2023-08-12T04:24:47;23.10;91.00
42095;DHT22;27753;55.724;37.612;2023-08-12T04:27:13;23.10;90.80
42095;DHT22;27753;55.724;37.612;2023-08-12T04:29:42;23.10;90.80
42095;DHT22;27753;55.724;37.612;2023-08-12T04:32:07;23.00;90.80
42095;DHT22;27753;55.724;37.612;2023-08-12T04:34:33;23.00;90.80
42095;DHT22;27753;55.724;37.612;2023-08-12T04:36:59;23.00;90.70
42095;DHT22;27753;55.724;37.612;2023-08-12T04:39:25;23.00;90.80
42095;DHT22;27753;55.724;37.612;2023-08-12T04:41:51;23.00;90.60
42095;DHT22;27753;55.724;37.612;2023-08-12T04:44:17;23.10;90.80
42095;DHT22;27753;55.724;37.612;2023-08-12T04:46:44;23.20;90.60
42095;DHT22;27753;55.724;37.612;2023-08-12T04:49:10;23.20;90.10
42095;DHT22;27753;55.724;37.612;2023-08-12T04:51:36;23.20;90.20
42095;DHT22;27753;55.724;37.612;2023-08-12T04:54:02;23.20;90.20
42095;DHT22;27753;55.724;37.612;2023-08-12T04:56:28;23.20;90.10
42095;DHT22;27753;55.724;37.612;2023-08-12T04:58:55;23.20;90.10
42095;DHT22;27753;55.724;37.612;2023-08-12T05:01:21;23.20;90.50
42095;DHT22;27753;55.724;37.612;2023-08-12T05:03:47;23.20;90.30
42095;DHT22;27753;55.724;37.612;2023-08-12T05:06:13;23.20;90.10
42095;DHT22;27753;55.724;37.612;2023-08-12T05:08:39;23.20;89.90
42095;DHT22;27753;55.724;37.612;2023-08-12T05:11:05;23.10;90.30
42095;DHT22;27753;55.724;37.612;2023-08-12T05:13:31;23.10;90.40
42095;DHT22;27753;55.724;37.612;2023-08-12T05:15:57;23.10;90.30
42095;DHT22;27753;55.724;37.612;2023-08-12T05:18:23;23.20;90.40
42095;DHT22;27753;55.724;37.612;2023-08-12T05:20:51;23.20;90.30
42095;DHT22;27753;55.724;37.612;2023-08-12T05:23:17;23.20;90.10
42095;DHT22;27753;55.724;37.612;2023-08-12T05:25:43;23.10;90.00
42095;DHT22;27753;55.724;37.612;2023-08-12T05:28:09;23.00;90.20
42095;DHT22;27753;55.724;37.612;2023-08-12T05:30:35;22.80;90.30
42095;DHT22;27753;55.724;37.612;2023-08-12T05:33:01;22.70;90.60
42095;DHT22;27753;55.724;37.612;2023-08-12T05:35:28;22.50;90.80
42095;DHT22;27753;55.724;37.612;2023-08-12T05:37:53;22.40;91.20
42095;DHT22;27753;55.724;37.612;2023-08-12T05:40:19;22.30;90.80
42095;DHT22;27753;55.724;37.612;2023-08-12T05:42:46;22.30;91.00
42095;DHT22;27753;55.724;37.612;2023-08-12T05:45:12;22.40;91.00
42095;DHT22;27753;55.724;37.612;2023-08-12T05:47:38;22.50;90.80
42095;DHT22;27753;55.724;37.612;2023-08-12T05:50:05;22.50;90.50
42095;DHT22;27753;55.724;37.612;2023-08-12T05:52:32;22.60;90.50
42095;DHT22;27753;55.724;37.612;2023-08-12T05:54:58;22.60;90.20
42095;DHT22;27753;55.724;37.612;2023-08-12T05:57:24;22.60;90.00
42095;DHT22;27753;55.724;37.612;2023-08-12T05:59:49;22.70;90.10
42095;DHT22;27753;55.724;37.612;2023-08-12T06:02:15;22.70;90.00
42095;DHT22;27753;55.724;37.612;2023-08-12T06:04:41;22.70;89.90
42095;DHT22;27753;55.724;37.612;2023-08-12T06:07:07;22.80;89.80
42095;DHT22;27753;55.724;37.612;2023-08-12T06:09:33;22.80;89.20
42095;DHT22;27753;55.724;37.612;2023-08-12T06:11:59;22.90;89.40
42095;DHT22;27753;55.724;37.612;2023-08-12T06:14:25;23.00;89.10
42095;DHT22;27753;55.724;37.612;2023-08-12T06:16:51;23.10;87.90
42095;DHT22;27753;55.724;37.612;2023-08-12T06:19:18;23.30;87.60
42095;DHT22;27753;55.724;37.612;2023-08-12T06:21:44;23.50;86.60
42095;DHT22;27753;55.724;37.612;2023-08-12T06:24:10;23.70;85.30
42095;DHT22;27753;55.724;37.612;2023-08-12T06:26:36;23.80;83.70
42095;DHT22;27753;55.724;37.612;2023-08-12T06:29:01;23.80;83.30
42095;DHT22;27753;55.724;37.612;2023-08-12T06:31:27;23.90;82.40
42095;DHT22;27753;55.724;37.612;2023-08-12T06:33:53;23.80;82.50
42095;DHT22;27753;55.724;37.612;2023-08-12T06:36:19;23.90;82.70
42095;DHT22;27753;55.724;37.612;2023-08-12T06:38:45;23.90;82.90
42095;DHT22;27753;55.724;37.612;2023-08-12T06:41:11;23.90;82.70
42095;DHT22;27753;55.724;37.612;2023-08-12T06:43:37;23.90;82.20
42095;DHT22;27753;55.724;37.612;2023-08-12T06:46:03;23.90;82.20
42095;DHT22;27753;55.724;37.612;2023-08-12T06:48:29;24.00;81.40
42095;DHT22;27753;55.724;37.612;2023-08-12T06:50:56;24.10;81.80
42095;DHT22;27753;55.724;37.612;2023-08-12T06:53:22;24.20;81.20
42095;DHT22;27753;55.724;37.612;2023-08-12T06:55:48;24.30;81.10
42095;DHT22;27753;55.724;37.612;2023-08-12T06:58:14;24.50;80.30
42095;DHT22;27753;55.724;37.612;2023-08-12T07:00:40;24.80;79.60
42095;DHT22;27753;55.724;37.612;2023-08-12T07:03:07;25.10;78.80
42095;DHT22;27753;55.724;37.612;2023-08-12T07:05:32;25.30;78.10
42095;DHT22;27753;55.724;37.612;2023-08-12T07:07:58;25.30;77.00
42095;DHT22;27753;55.724;37.612;2023-08-12T07:10:24;25.40;76.70
42095;DHT22;27753;55.724;37.612;2023-08-12T07:12:50;25.40;76.80
42095;DHT22;27753;55.724;37.612;2023-08-12T07:15:16;25.40;76.70
42095;DHT22;27753;55.724;37.612;2023-08-12T07:17:42;25.30;77.00
42095;DHT22;27753;55.724;37.612;2023-08-12T07:20:08;25.20;76.70
42095;DHT22;27753;55.724;37.612;2023-08-12T07:22:34;25.10;77.40
42095;DHT22;27753;55.724;37.612;2023-08-12T07:25:00;25.00;77.40
42095;DHT22;27753;55.724;37.612;2023-08-12T07:27:27;25.20;76.60
42095;DHT22;27753;55.724;37.612;2023-08-12T07:29:53;25.40;76.60
42095;DHT22;27753;55.724;37.612;2023-08-12T07:32:20;25.60;74.90
42095;DHT22;27753;55.724;37.612;2023-08-12T07:34:52;25.80;74.80
42095;DHT22;27753;55.724;37.612;2023-08-12T07:37:22;26.00;74.70
42095;DHT22;27753;55.724;37.612;2023-08-12T07:39:48;26.10;73.70
42095;DHT22;27753;55.724;37.612;2023-08-12T07:42:14;26.00;73.60
42095;DHT22;27753;55.724;37.612;2023-08-12T07:44:39;25.80;74.20
42095;DHT22;27753;55.724;37.612;2023-08-12T07:47:05;25.70;74.20
42095;DHT22;27753;55.724;37.612;2023-08-12T07:49:31;25.70;74.80
42095;DHT22;27753;55.724;37.612;2023-08-12T07:51:57;25.60;75.00
42095;DHT22;27753;55.724;37.612;2023-08-12T07:54:23;25.50;75.00
42095;DHT22;27753;55.724;37.612;2023-08-12T07:56:49;25.50;75.40
42095;DHT22;27753;55.724;37.612;2023-08-12T07:59:15;25.50;75.10
42095;DHT22;27753;55.724;37.612;2023-08-12T08:01:41;25.40;75.70
42095;DHT22;27753;55.724;37.612;2023-08-12T08:04:07;25.40;75.80
42095;DHT22;27753;55.724;37.612;2023-08-12T08:06:38;25.20;76.30
42095;DHT22;27753;55.724;37.612;2023-08-12T08:09:46;25.00;78.30
42095;DHT22;27753;55.724;37.612;2023-08-12T08:12:34;24.40;80.60
42095;DHT22;27753;55.724;37.612;2023-08-12T08:15:00;23.80;84.10
42095;DHT22;27753;55.724;37.612;2023-08-12T08:17:26;23.40;85.80
42095;DHT22;27753;55.724;37.612;2023-08-12T08:19:52;23.10;87.70
42095;DHT22;27753;55.724;37.612;2023-08-12T08:22:18;22.90;88.60
42095;DHT22;27753;55.724;37.612;2023-08-12T08:24:44;22.60;89.40
42095;DHT22;27753;55.724;37.612;2023-08-12T08:27:10;22.40;90.00
42095;DHT22;27753;55.724;37.612;2023-08-12T08:29:36;22.50;88.20
42095;DHT22;27753;55.724;37.612;2023-08-12T08:32:02;22.60;88.40
42095;DHT22;27753;55.724;37.612;2023-08-12T08:34:28;22.80;88.40
42095;DHT22;27753;55.724;37.612;2023-08-12T08:36:54;23.00;87.50
42095;DHT22;27753;55.724;37.612;2023-08-12T08:39:22;23.20;87.80
42095;DHT22;27753;55.724;37.612;2023-08-12T08:41:48;23.40;87.30
42095;DHT22;27753;55.724;37.612;2023-08-12T08:44:15;23.50;86.50
42095;DHT22;27753;55.724;37.612;2023-08-12T08:46:42;23.70;85.90
42095;DHT22;27753;55.724;37.612;2023-08-12T08:49:09;23.80;85.60
42095;DHT22;27753;55.724;37.612;2023-08-12T08:51:36;24.10;84.30
42095;DHT22;27753;55.724;37.612;2023-08-12T08:54:03;24.20;84.00
42095;DHT22;27753;55.724;37.612;2023-08-12T08:56:32;24.30;83.80
42095;DHT22;27753;55.724;37.612;2023-08-12T08:58:58;24.40;82.90
42095;DHT22;27753;55.724;37.612;2023-08-12T09:01:24;24.40;83.10
42095;DHT22;27753;55.724;37.612;2023-08-12T09:03:51;24.50;82.80
42095;DHT22;27753;55.724;37.612;2023-08-12T09:06:21;24.60;82.00
42095;DHT22;27753;55.724;37.612;2023-08-12T09:08:49;24.60;82.30
42095;DHT22;27753;55.724;37.612;2023-08-12T09:11:19;24.80;82.40
42095;DHT22;27753;55.724;37.612;2023-08-12T09:13:46;24.80;81.30
42095;DHT22;27753;55.724;37.612;2023-08-12T09:16:12;24.90;80.90
42095;DHT22;27753;55.724;37.612;2023-08-12T09:18:39;24.80;80.70
42095;DHT22;27753;55.724;37.612;2023-08-12T09:21:09;24.70;81.20
42095;DHT22;27753;55.724;37.612;2023-08-12T09:23:40;24.40;82.00
42095;DHT22;27753;55.724;37.612;2023-08-12T09:26:18;24.00;83.80
42095;DHT22;27753;55.724;37.612;2023-08-12T09:28:44;23.80;84.70
42095;DHT22;27753;55.724;37.612;2023-08-12T09:31:24;23.90;84.50
42095;DHT22;27753;55.724;37.612;2023-08-12T09:33:51;24.00;84.30
42095;DHT22;27753;55.724;37.612;2023-08-12T09:36:17;24.10;84.10
42095;DHT22;27753;55.724;37.612;2023-08-12T09:38:44;24.00;83.60
42095;DHT22;27753;55.724;37.612;2023-08-12T09:41:10;23.80;84.90
42095;DHT22;27753;55.724;37.612;2023-08-12T09:43:43;23.60;85.90
42095;DHT22;27753;55.724;37.612;2023-08-12T09:46:13;23.50;85.20
42095;DHT22;27753;55.724;37.612;2023-08-12T09:48:42;23.30;85.40
42095;DHT22;27753;55.724;37.612;2023-08-12T09:51:09;23.20;86.70
42095;DHT22;27753;55.724;37.612;2023-08-12T09:53:36;23.10;86.70
42095;DHT22;27753;55.724;37.612;2023-08-12T09:56:06;23.10;86.10
42095;DHT22;27753;55.724;37.612;2023-08-12T09:58:34;23.00;86.50
42095;DHT22;27753;55.724;37.612;2023-08-12T10:01:05;22.90;86.90
42095;DHT22;27753;55.724;37.612;2023-08-12T10:03:33;22.70;87.00
42095;DHT22;27753;55.724;37.612;2023-08-12T10:06:01;22.20;87.80
42095;DHT22;27753;55.724;37.612;2023-08-12T10:08:30;21.90;90.30
42095;DHT22;27753;55.724;37.612;2023-08-12T10:10:57;21.80;91.20
42095;DHT22;27753;55.724;37.612;2023-08-12T10:13:23;21.70;91.60
42095;DHT22;27753;55.724;37.612;2023-08-12T10:15:52;21.80;92.00
42095;DHT22;27753;55.724;37.612;2023-08-12T10:18:20;21.90;92.00
42095;DHT22;27753;55.724;37.612;2023-08-12T10:20:48;22.00;91.80
42095;DHT22;27753;55.724;37.612;2023-08-12T10:23:16;21.90;91.90
42095;DHT22;27753;55.724;37.612;2023-08-12T10:25:43;21.80;92.40
42095;DHT22;27753;55.724;37.612;2023-08-12T10:28:10;21.60;92.50
42095;DHT22;27753;55.724;37.612;2023-08-12T10:30:36;21.30;93.30
42095;DHT22;27753;55.724;37.612;2023-08-12T10:33:03;21.20;93.70
42095;DHT22;27753;55.724;37.612;2023-08-12T10:35:45;21.10;94.00
42095;DHT22;27753;55.724;37.612;2023-08-12T10:38:17;21.10;93.90
42095;DHT22;27753;55.724;37.612;2023-08-12T10:40:43;21.20;94.00
42095;DHT22;27753;55.724;37.612;2023-08-12T10:43:12;21.40;93.80
42095;DHT22;27753;55.724;37.612;2023-08-12T10:45:43;21.50;93.40
42095;DHT22;27753;55.724;37.612;2023-08-12T10:48:21;21.70;93.00
42095;DHT22;27753;55.724;37.612;2023-08-12T10:50:59;21.90;92.80
42095;DHT22;27753;55.724;37.612;2023-08-12T10:53:28;22.00;93.10
42095;DHT22;27753;55.724;37.612;2023-08-12T10:56:03;21.90;92.70
42095;DHT22;27753;55.724;37.612;2023-08-12T10:58:46;21.50;93.90
42095;DHT22;27753;55.724;37.612;2023-08-12T11:01:19;21.30;94.10
42095;DHT22;27753;55.724;37.612;2023-08-12T11:03:46;21.00;94.60
42095;DHT22;27753;55.724;37.612;2023-08-12T11:06:12;21.00;95.00
42095;DHT22;27753;55.724;37.612;2023-08-12T11:08:54;21.10;95.10
42095;DHT22;27753;55.724;37.612;2023-08-12T11:11:26;21.20;95.20
42095;DHT22;27753;55.724;37.612;2023-08-12T11:13:54;21.30;95.10
42095;DHT22;27753;55.724;37.612;2023-08-12T11:16:34;21.50;94.90
42095;DHT22;27753;55.724;37.612;2023-08-12T11:19:00;21.60;94.50
42095;DHT22;27753;55.724;37.612;2023-08-12T11:21:26;21.70;94.40
42095;DHT22;27753;55.724;37.612;2023-08-12T11:23:55;21.80;94.40
42095;DHT22;27753;55.724;37.612;2023-08-12T11:26:23;21.90;94.00
42095;DHT22;27753;55.724;37.612;2023-08-12T11:28:49;21.90;94.00
42095;DHT22;27753;55.724;37.612;2023-08-12T11:31:16;21.90;94.40
42095;DHT22;27753;55.724;37.612;2023-08-12T11:33:42;21.70;94.90
42095;DHT22;27753;55.724;37.612;2023-08-12T11:36:09;21.60;95.70
42095;DHT22;27753;55.724;37.612;2023-08-12T11:38:35;21.40;96.00
42095;DHT22;27753;55.724;37.612;2023-08-12T11:41:04;21.10;96.60
42095;DHT22;27753;55.724;37.612;2023-08-12T11:43:32;20.90;97.20
42095;DHT22;27753;55.724;37.612;2023-08-12T11:45:59;20.80;98.10
42095;DHT22;27753;55.724;37.612;2023-08-12T11:48:27;20.80;98.40
42095;DHT22;27753;55.724;37.612;2023-08-12T11:50:53;20.80;98.80
42095;DHT22;27753;55.724;37.612;2023-08-12T11:53:20;20.80;99.30
42095;DHT22;27753;55.724;37.612;2023-08-12T11:55:46;20.80;99.00
42095;DHT22;27753;55.724;37.612;2023-08-12T11:58:14;20.70;98.90
42095;DHT22;27753;55.724;37.612;2023-08-12T12:00:46;20.60;99.40
42095;DHT22;27753;55.724;37.612;2023-08-12T12:03:12;20.60;99.00
42095;DHT22;27753;55.724;37.612;2023-08-12T12:05:38;20.60;99.30
42095;DHT22;27753;55.724;37.612;2023-08-12T12:08:07;20.50;99.80
42095;DHT22;27753;55.724;37.612;2023-08-12T12:10:41;20.60;99.90
42095;DHT22;27753;55.724;37.612;2023-08-12T12:13:08;20.60;99.90
42095;DHT22;27753;55.724;37.612;2023-08-12T12:15:43;20.50;99.90
42095;DHT22;27753;55.724;37.612;2023-08-12T12:18:13;20.40;99.90
42095;DHT22;27753;55.724;37.612;2023-08-12T12:20:55;20.30;99.90
42095;DHT22;27753;55.724;37.612;2023-08-12T12:23:22;20.20;99.90
42095;DHT22;27753;55.724;37.612;2023-08-12T12:26:00;20.00;99.90
42095;DHT22;27753;55.724;37.612;2023-08-12T12:28:27;19.90;99.90
42095;DHT22;27753;55.724;37.612;2023-08-12T12:30:53;19.70;99.90
42095;DHT22;27753;55.724;37.612;2023-08-12T12:33:19;19.60;99.90
42095;DHT22;27753;55.724;37.612;2023-08-12T12:35:44;19.60;99.90
42095;DHT22;27753;55.724;37.612;2023-08-12T12:38:11;19.60;99.90
42095;DHT22;27753;55.724;37.612;2023-08-12T12:40:36;19.50;99.90
42095;DHT22;27753;55.724;37.612;2023-08-12T12:43:04;19.60;99.90
42095;DHT22;27753;55.724;37.612;2023-08-12T12:45:30;19.50;99.90
42095;DHT22;27753;55.724;37.612;2023-08-12T12:47:56;19.50;99.90
42095;DHT22;27753;55.724;37.612;2023-08-12T12:50:22;19.50;99.90
42095;DHT22;27753;55.724;37.612;2023-08-12T12:52:48;19.40;99.90
42095;DHT22;27753;55.724;37.612;2023-08-12T12:55:14;19.40;99.90
42095;DHT22;27753;55.724;37.612;2023-08-12T12:57:40;19.60;99.90
42095;DHT22;27753;55.724;37.612;2023-08-12T13:00:06;19.70;99.90
42095;DHT22;27753;55.724;37.612;2023-08-12T13:02:37;19.70;99.90
42095;DHT22;27753;55.724;37.612;2023-08-12T13:05:03;19.80;99.90
42095;DHT22;27753;55.724;37.612;2023-08-12T13:07:29;19.90;99.90
42095;DHT22;27753;55.724;37.612;2023-08-12T13:09:55;20.00;99.90
42095;DHT22;27753;55.724;37.612;2023-08-12T13:12:21;20.00;99.90
42095;DHT22;27753;55.724;37.612;2023-08-12T13:14:48;20.00;99.90
42095;DHT22;27753;55.724;37.612;2023-08-12T13:17:14;20.00;99.90
42095;DHT22;27753;55.724;37.612;2023-08-12T13:19:40;20.00;99.90
42095;DHT22;27753;55.724;37.612;2023-08-12T13:22:06;19.90;99.90
42095;DHT22;27753;55.724;37.612;2023-08-12T13:24:32;20.00;99.90
42095;DHT22;27753;55.724;37.612;2023-08-12T13:26:58;20.00;99.90
42095;DHT22;27753;55.724;37.612;2023-08-12T13:29:24;20.10;99.90
42095;DHT22;27753;55.724;37.612;2023-08-12T13:31:51;20.10;99.90
42095;DHT22;27753;55.724;37.612;2023-08-12T13:34:17;20.10;99.90
42095;DHT22;27753;55.724;37.612;2023-08-12T13:36:45;20.20;99.90
42095;DHT22;27753;55.724;37.612;2023-08-12T13:39:11;20.30;99.90
42095;DHT22;27753;55.724;37.612;2023-08-12T13:41:37;20.40;99.90
42095;DHT22;27753;55.724;37.612;2023-08-12T13:44:03;20.60;99.90
42095;DHT22;27753;55.724;37.612;2023-08-12T13:46:29;20.70;99.90
42095;DHT22;27753;55.724;37.612;2023-08-12T13:48:54;20.80;99.90
42095;DHT22;27753;55.724;37.612;2023-08-12T13:51:20;20.80;99.90
42095;DHT22;27753;55.724;37.612;2023-08-12T13:53:46;20.70;99.90
42095;DHT22;27753;55.724;37.612;2023-08-12T13:56:12;20.70;99.90
42095;DHT22;27753;55.724;37.612;2023-08-12T13:58:38;20.80;99.90
42095;DHT22;27753;55.724;37.612;2023-08-12T14:01:04;20.90;99.90
42095;DHT22;27753;55.724;37.612;2023-08-12T14:03:29;20.80;99.90
42095;DHT22;27753;55.724;37.612;2023-08-12T14:05:56;20.90;99.90
42095;DHT22;27753;55.724;37.612;2023-08-12T14:08:22;20.90;99.90
42095;DHT22;27753;55.724;37.612;2023-08-12T14:10:47;20.80;99.90
42095;DHT22;27753;55.724;37.612;2023-08-12T14:13:14;20.80;99.90
42095;DHT22;27753;55.724;37.612;2023-08-12T14:15:40;20.80;99.90
42095;DHT22;27753;55.724;37.612;2023-08-12T14:18:06;20.80;99.90
42095;DHT22;27753;55.724;37.612;2023-08-12T14:20:32;20.80;99.90
42095;DHT22;27753;55.724;37.612;2023-08-12T14:22:58;20.80;99.90
42095;DHT22;27753;55.724;37.612;2023-08-12T14:25:24;20.80;99.90
42095;DHT22;27753;55.724;37.612;2023-08-12T14:27:50;20.80;99.90
42095;DHT22;27753;55.724;37.612;2023-08-12T14:30:18;20.70;99.90
42095;DHT22;27753;55.724;37.612;2023-08-12T14:32:47;20.80;99.90
42095;DHT22;27753;55.724;37.612;2023-08-12T14:35:13;20.90;99.90
42095;DHT22;27753;55.724;37.612;2023-08-12T14:37:39;21.00;99.90
42095;DHT22;27753;55.724;37.612;2023-08-12T14:40:05;20.90;99.90
42095;DHT22;27753;55.724;37.612;2023-08-12T14:42:31;20.90;99.90
42095;DHT22;27753;55.724;37.612;2023-08-12T14:44:57;20.90;99.90
42095;DHT22;27753;55.724;37.612;2023-08-12T14:47:23;21.00;99.90
42095;DHT22;27753;55.724;37.612;2023-08-12T14:49:49;21.20;99.90
42095;DHT22;27753;55.724;37.612;2023-08-12T14:52:18;21.20;99.90
42095;DHT22;27753;55.724;37.612;2023-08-12T14:54:44;21.10;99.90
42095;DHT22;27753;55.724;37.612;2023-08-12T14:57:10;21.00;99.90
42095;DHT22;27753;55.724;37.612;2023-08-12T14:59:36;20.90;99.90
42095;DHT22;27753;55.724;37.612;2023-08-12T15:02:03;21.10;99.90
42095;DHT22;27753;55.724;37.612;2023-08-12T15:04:29;21.70;99.90
42095;DHT22;27753;55.724;37.612;2023-08-12T15:06:55;22.30;99.90
42095;DHT22;27753;55.724;37.612;2023-08-12T15:09:21;22.70;99.60
42095;DHT22;27753;55.724;37.612;2023-08-12T15:11:47;23.00;98.20
42095;DHT22;27753;55.724;37.612;2023-08-12T15:14:13;23.00;97.70
42095;DHT22;27753;55.724;37.612;2023-08-12T15:16:39;22.90;97.80